sensor_id;sensor_type;location;lat;lon;timestamp;temperature;humidity
80743;SHT31;70142;50.894;6.052;2023-07-16T00:00:23;19.72;74.85
80743;SHT31;70142;50.894;6.052;2023-07-16T00:02:59;19.68;74.98
80743;SHT31;70142;50.894;6.052;2023-07-16T00:05:32;19.69;75.08
80743;SHT31;70142;50.894;6.052;2023-07-16T00:08:05;19.61;75.50
80743;SHT31;70142;50.894;6.052;2023-07-16T00:10:38;19.57;75.71
80743;SHT31;70142;50.894;6.052;2023-07-16T00:13:12;19.58;75.42
80743;SHT31;70142;50.894;6.052;2023-07-16T00:15:46;19.54;75.48
80743;SHT31;70142;50.894;6.052;2023-07-16T00:18:20;19.51;75.36
80743;SHT31;70142;50.894;6.052;2023-07-16T00:20:53;19.55;75.38
80743;SHT31;70142;50.894;6.052;2023-07-16T00:23:26;19.53;75.24
80743;SHT31;70142;50.894;6.052;2023-07-16T00:25:59;19.47;75.37
80743;SHT31;70142;50.894;6.052;2023-07-16T00:28:33;19.41;75.57
80743;SHT31;70142;50.894;6.052;2023-07-16T00:31:08;19.34;75.71
80743;SHT31;70142;50.894;6.052;2023-07-16T00:33:41;19.30;75.67
80743;SHT31;70142;50.894;6.052;2023-07-16T00:36:14;19.27;75.81
80743;SHT31;70142;50.894;6.052;2023-07-16T00:38:48;19.24;75.64
80743;SHT31;70142;50.894;6.052;2023-07-16T00:41:22;19.23;75.60
80743;SHT31;70142;50.894;6.052;2023-07-16T00:43:55;19.24;75.41
80743;SHT31;70142;50.894;6.052;2023-07-16T00:46:30;19.27;75.48
80743;SHT31;70142;50.894;6.052;2023-07-16T00:49:03;19.17;75.46
80743;SHT31;70142;50.894;6.052;2023-07-16T00:51:37;19.20;75.49
80743;SHT31;70142;50.894;6.052;2023-07-16T00:54:11;19.20;75.45
80743;SHT31;70142;50.894;6.052;2023-07-16T00:56:45;19.18;75.42
80743;SHT31;70142;50.894;6.052;2023-07-16T00:59:19;19.16;75.26
80743;SHT31;70142;50.894;6.052;2023-07-16T01:01:53;19.16;75.23
80743;SHT31;70142;50.894;6.052;2023-07-16T01:04:27;19.13;75.15
80743;SHT31;70142;50.894;6.052;2023-07-16T01:07:04;19.04;75.36
80743;SHT31;70142;50.894;6.052;2023-07-16T01:09:41;19.03;75.32
80743;SHT31;70142;50.894;6.052;2023-07-16T01:12:15;18.93;75.57
80743;SHT31;70142;50.894;6.052;2023-07-16T01:14:51;18.97;75.67
80743;SHT31;70142;50.894;6.052;2023-07-16T01:17:26;18.90;75.49
80743;SHT31;70142;50.894;6.052;2023-07-16T01:19:59;18.93;75.43
80743;SHT31;70142;50.894;6.052;2023-07-16T01:22:55;18.87;75.27
80743;SHT31;70142;50.894;6.052;2023-07-16T01:26:01;18.86;75.21
80743;SHT31;70142;50.894;6.052;2023-07-16T01:29:13;18.79;75.30
80743;SHT31;70142;50.894;6.052;2023-07-16T01:31:50;18.77;75.00
80743;SHT31;70142;50.894;6.052;2023-07-16T01:34:26;18.73;74.83
80743;SHT31;70142;50.894;6.052;2023-07-16T01:37:02;18.79;74.92
80743;SHT31;70142;50.894;6.052;2023-07-16T01:39:36;18.69;74.72
80743;SHT31;70142;50.894;6.052;2023-07-16T01:42:09;18.69;74.66
80743;SHT31;70142;50.894;6.052;2023-07-16T01:44:45;18.67;74.44
80743;SHT31;70142;50.894;6.052;2023-07-16T01:47:28;18.65;74.38
80743;SHT31;70142;50.894;6.052;2023-07-16T01:50:04;18.69;74.16
80743;SHT31;70142;50.894;6.052;2023-07-16T01:52:38;18.63;73.89
80743;SHT31;70142;50.894;6.052;2023-07-16T01:55:11;18.60;73.80
80743;SHT31;70142;50.894;6.052;2023-07-16T01:57:44;18.63;73.22
80743;SHT31;70142;50.894;6.052;2023-07-16T02:00:19;18.57;72.93
80743;SHT31;70142;50.894;6.052;2023-07-16T02:02:55;18.59;73.03
80743;SHT31;70142;50.894;6.052;2023-07-16T02:05:28;18.48;72.49
80743;SHT31;70142;50.894;6.052;2023-07-16T02:08:01;18.42;72.53
80743;SHT31;70142;50.894;6.052;2023-07-16T02:10:37;18.49;72.12
80743;SHT31;70142;50.894;6.052;2023-07-16T02:13:10;18.45;72.22
80743;SHT31;70142;50.894;6.052;2023-07-16T02:15:45;18.41;72.15
80743;SHT31;70142;50.894;6.052;2023-07-16T02:18:19;18.36;72.17
80743;SHT31;70142;50.894;6.052;2023-07-16T02:20:52;18.31;72.08
80743;SHT31;70142;50.894;6.052;2023-07-16T02:23:25;18.31;72.27
80743;SHT31;70142;50.894;6.052;2023-07-16T02:25:58;18.29;72.21
80743;SHT31;70142;50.894;6.052;2023-07-16T02:28:32;18.25;72.04
80743;SHT31;70142;50.894;6.052;2023-07-16T02:31:06;18.26;71.94
80743;SHT31;70142;50.894;6.052;2023-07-16T02:33:39;18.28;71.63
80743;SHT31;70142;50.894;6.052;2023-07-16T02:36:13;18.26;71.40
80743;SHT31;70142;50.894;6.052;2023-07-16T02:38:46;18.18;71.16
80743;SHT31;70142;50.894;6.052;2023-07-16T02:41:20;18.21;71.33
80743;SHT31;70142;50.894;6.052;2023-07-16T02:44:00;18.25;71.26
80743;SHT31;70142;50.894;6.052;2023-07-16T02:46:34;18.18;71.01
80743;SHT31;70142;50.894;6.052;2023-07-16T02:49:08;18.15;71.19
80743;SHT31;70142;50.894;6.052;2023-07-16T02:51:43;18.13;71.05
80743;SHT31;70142;50.894;6.052;2023-07-16T02:54:17;18.05;70.82
80743;SHT31;70142;50.894;6.052;2023-07-16T02:56:50;18.09;70.86
80743;SHT31;70142;50.894;6.052;2023-07-16T02:59:23;18.06;70.55
80743;SHT31;70142;50.894;6.052;2023-07-16T03:01:57;18.05;70.75
80743;SHT31;70142;50.894;6.052;2023-07-16T03:04:31;18.05;70.75
80743;SHT31;70142;50.894;6.052;2023-07-16T03:07:05;18.02;71.08
80743;SHT31;70142;50.894;6.052;2023-07-16T03:09:38;17.97;71.28
80743;SHT31;70142;50.894;6.052;2023-07-16T03:12:11;17.92;71.24
80743;SHT31;70142;50.894;6.052;2023-07-16T03:14:44;17.90;71.42
80743;SHT31;70142;50.894;6.052;2023-07-16T03:17:19;17.84;71.05
80743;SHT31;70142;50.894;6.052;2023-07-16T03:19:52;17.84;71.47
80743;SHT31;70142;50.894;6.052;2023-07-16T03:22:26;17.81;71.01
80743;SHT31;70142;50.894;6.052;2023-07-16T03:25:00;17.85;70.93
80743;SHT31;70142;50.894;6.052;2023-07-16T03:27:36;17.84;71.16
80743;SHT31;70142;50.894;6.052;2023-07-16T03:30:10;17.75;71.58
80743;SHT31;70142;50.894;6.052;2023-07-16T03:32:45;17.74;71.78
80743;SHT31;70142;50.894;6.052;2023-07-16T03:35:26;17.80;71.79
80743;SHT31;70142;50.894;6.052;2023-07-16T03:37:59;17.80;72.06
80743;SHT31;70142;50.894;6.052;2023-07-16T03:40:33;17.77;72.22
80743;SHT31;70142;50.894;6.052;2023-07-16T03:43:06;17.71;72.38
80743;SHT31;70142;50.894;6.052;2023-07-16T03:45:40;17.73;72.48
80743;SHT31;70142;50.894;6.052;2023-07-16T03:48:15;17.74;72.32
80743;SHT31;70142;50.894;6.052;2023-07-16T03:50:48;17.74;72.21
80743;SHT31;70142;50.894;6.052;2023-07-16T03:53:21;17.74;71.91
80743;SHT31;70142;50.894;6.052;2023-07-16T03:55:55;17.75;71.47
80743;SHT31;70142;50.894;6.052;2023-07-16T03:58:28;17.73;71.45
80743;SHT31;70142;50.894;6.052;2023-07-16T04:01:05;17.75;70.88
80743;SHT31;70142;50.894;6.052;2023-07-16T04:03:40;17.73;70.26
80743;SHT31;70142;50.894;6.052;2023-07-16T04:06:13;17.77;70.31
80743;SHT31;70142;50.894;6.052;2023-07-16T04:08:47;17.77;69.70
80743;SHT31;70142;50.894;6.052;2023-07-16T04:11:20;17.78;69.18
80743;SHT31;70142;50.894;6.052;2023-07-16T04:13:53;17.74;69.03
80743;SHT31;70142;50.894;6.052;2023-07-16T04:16:26;17.81;69.08
80743;SHT31;70142;50.894;6.052;2023-07-16T04:19:01;17.81;69.33
80743;SHT31;70142;50.894;6.052;2023-07-16T04:21:34;17.88;68.73
80743;SHT31;70142;50.894;6.052;2023-07-16T04:24:08;17.94;68.78
80743;SHT31;70142;50.894;6.052;2023-07-16T04:26:41;17.94;68.85
80743;SHT31;70142;50.894;6.052;2023-07-16T04:29:15;17.81;69.13
80743;SHT31;70142;50.894;6.052;2023-07-16T04:31:48;17.85;68.72
80743;SHT31;70142;50.894;6.052;2023-07-16T04:34:23;17.92;68.43
80743;SHT31;70142;50.894;6.052;2023-07-16T04:36:56;17.97;68.38
80743;SHT31;70142;50.894;6.052;2023-07-16T04:39:29;17.94;68.08
80743;SHT31;70142;50.894;6.052;2023-07-16T04:42:03;17.95;67.85
80743;SHT31;70142;50.894;6.052;2023-07-16T04:44:36;17.95;67.63
80743;SHT31;70142;50.894;6.052;2023-07-16T04:47:09;17.95;67.15
80743;SHT31;70142;50.894;6.052;2023-07-16T04:49:44;17.94;67.11
80743;SHT31;70142;50.894;6.052;2023-07-16T04:52:17;17.92;67.40
80743;SHT31;70142;50.894;6.052;2023-07-16T04:54:53;18.09;66.88
80743;SHT31;70142;50.894;6.052;2023-07-16T04:57:26;18.11;66.49
80743;SHT31;70142;50.894;6.052;2023-07-16T04:59:59;18.05;66.63
80743;SHT31;70142;50.894;6.052;2023-07-16T05:02:33;18.42;66.03
80743;SHT31;70142;50.894;6.052;2023-07-16T05:05:08;19.17;63.53
80743;SHT31;70142;50.894;6.052;2023-07-16T05:07:41;19.34;62.18
80743;SHT31;70142;50.894;6.052;2023-07-16T05:10:14;19.46;62.08
80743;SHT31;70142;50.894;6.052;2023-07-16T05:12:48;19.65;61.77
80743;SHT31;70142;50.894;6.052;2023-07-16T05:15:21;19.78;60.89
80743;SHT31;70142;50.894;6.052;2023-07-16T05:17:57;19.79;60.66
80743;SHT31;70142;50.894;6.052;2023-07-16T05:20:31;20.05;60.12
80743;SHT31;70142;50.894;6.052;2023-07-16T05:23:05;20.05;60.02
80743;SHT31;70142;50.894;6.052;2023-07-16T05:25:38;20.32;59.62
80743;SHT31;70142;50.894;6.052;2023-07-16T05:28:11;20.32;59.47
80743;SHT31;70142;50.894;6.052;2023-07-16T05:30:45;20.05;58.94
80743;SHT31;70142;50.894;6.052;2023-07-16T05:33:18;20.20;58.77
80743;SHT31;70142;50.894;6.052;2023-07-16T05:35:53;20.29;58.43
80743;SHT31;70142;50.894;6.052;2023-07-16T05:38:26;20.53;57.75
80743;SHT31;70142;50.894;6.052;2023-07-16T05:41:01;20.26;58.27
80743;SHT31;70142;50.894;6.052;2023-07-16T05:43:34;20.53;57.42
80743;SHT31;70142;50.894;6.052;2023-07-16T05:46:08;20.49;57.64
80743;SHT31;70142;50.894;6.052;2023-07-16T05:48:41;20.64;56.56
80743;SHT31;70142;50.894;6.052;2023-07-16T05:51:16;20.28;57.40
80743;SHT31;70142;50.894;6.052;2023-07-16T05:53:49;20.44;57.53
80743;SHT31;70142;50.894;6.052;2023-07-16T05:56:24;20.57;57.00
80743;SHT31;70142;50.894;6.052;2023-07-16T05:58:58;20.62;56.77
80743;SHT31;70142;50.894;6.052;2023-07-16T06:01:31;20.37;56.62
80743;SHT31;70142;50.894;6.052;2023-07-16T06:04:04;20.36;56.71
80743;SHT31;70142;50.894;6.052;2023-07-16T06:06:39;20.59;57.31
80743;SHT31;70142;50.894;6.052;2023-07-16T06:09:12;20.47;56.78
80743;SHT31;70142;50.894;6.052;2023-07-16T06:11:46;20.81;56.43
80743;SHT31;70142;50.894;6.052;2023-07-16T06:14:19;20.79;55.77
80743;SHT31;70142;50.894;6.052;2023-07-16T06:16:52;20.95;55.64
80743;SHT31;70142;50.894;6.052;2023-07-16T06:19:28;21.18;54.96
80743;SHT31;70142;50.894;6.052;2023-07-16T06:22:03;21.08;54.80
80743;SHT31;70142;50.894;6.052;2023-07-16T06:24:36;21.20;55.63
80743;SHT31;70142;50.894;6.052;2023-07-16T06:27:09;21.61;54.75
80743;SHT31;70142;50.894;6.052;2023-07-16T06:29:43;21.72;54.00
80743;SHT31;70142;50.894;6.052;2023-07-16T06:32:18;21.39;54.31
80743;SHT31;70142;50.894;6.052;2023-07-16T06:34:52;21.35;54.36
80743;SHT31;70142;50.894;6.052;2023-07-16T06:37:26;21.17;54.93
80743;SHT31;70142;50.894;6.052;2023-07-16T06:40:00;21.34;54.36
80743;SHT31;70142;50.894;6.052;2023-07-16T06:42:33;21.56;54.74
80743;SHT31;70142;50.894;6.052;2023-07-16T06:45:07;21.44;54.44
80743;SHT31;70142;50.894;6.052;2023-07-16T06:47:40;21.72;54.17
80743;SHT31;70142;50.894;6.052;2023-07-16T06:50:14;21.74;54.28
80743;SHT31;70142;50.894;6.052;2023-07-16T06:52:48;21.68;53.92
80743;SHT31;70142;50.894;6.052;2023-07-16T06:55:21;21.55;53.66
80743;SHT31;70142;50.894;6.052;2023-07-16T06:57:55;21.25;54.35
80743;SHT31;70142;50.894;6.052;2023-07-16T07:00:28;21.20;54.65
80743;SHT31;70142;50.894;6.052;2023-07-16T07:03:01;21.15;54.50
80743;SHT31;70142;50.894;6.052;2023-07-16T07:05:35;21.11;54.91
80743;SHT31;70142;50.894;6.052;2023-07-16T07:08:10;20.93;55.05
80743;SHT31;70142;50.894;6.052;2023-07-16T07:10:43;21.03;55.38
80743;SHT31;70142;50.894;6.052;2023-07-16T07:13:16;21.11;54.89
80743;SHT31;70142;50.894;6.052;2023-07-16T07:15:49;21.65;54.63
80743;SHT31;70142;50.894;6.052;2023-07-16T07:18:23;21.66;53.98
80743;SHT31;70142;50.894;6.052;2023-07-16T07:20:56;21.81;53.36
80743;SHT31;70142;50.894;6.052;2023-07-16T07:23:31;21.83;53.61
80743;SHT31;70142;50.894;6.052;2023-07-16T07:26:04;21.85;53.54
80743;SHT31;70142;50.894;6.052;2023-07-16T07:28:38;22.09;52.84
80743;SHT31;70142;50.894;6.052;2023-07-16T07:31:12;22.32;53.02
80743;SHT31;70142;50.894;6.052;2023-07-16T07:33:45;22.65;52.42
80743;SHT31;70142;50.894;6.052;2023-07-16T07:36:19;22.78;51.78
80743;SHT31;70142;50.894;6.052;2023-07-16T07:38:53;22.97;51.11
80743;SHT31;70142;50.894;6.052;2023-07-16T07:41:26;22.49;51.79
80743;SHT31;70142;50.894;6.052;2023-07-16T07:43:59;22.20;53.71
80743;SHT31;70142;50.894;6.052;2023-07-16T07:46:33;22.53;51.86
80743;SHT31;70142;50.894;6.052;2023-07-16T07:49:06;22.14;52.60
80743;SHT31;70142;50.894;6.052;2023-07-16T07:51:39;22.33;52.29
80743;SHT31;70142;50.894;6.052;2023-07-16T07:54:14;22.00;52.96
80743;SHT31;70142;50.894;6.052;2023-07-16T07:56:47;22.19;52.58
80743;SHT31;70142;50.894;6.052;2023-07-16T07:59:20;21.51;53.39
80743;SHT31;70142;50.894;6.052;2023-07-16T08:01:53;22.00;53.01
80743;SHT31;70142;50.894;6.052;2023-07-16T08:04:26;22.54;52.10
80743;SHT31;70142;50.894;6.052;2023-07-16T08:07:00;22.90;51.24
80743;SHT31;70142;50.894;6.052;2023-07-16T08:09:37;22.06;53.59
80743;SHT31;70142;50.894;6.052;2023-07-16T08:12:10;22.00;52.95
80743;SHT31;70142;50.894;6.052;2023-07-16T08:14:47;21.59;54.62
80743;SHT31;70142;50.894;6.052;2023-07-16T08:17:21;21.52;54.63
80743;SHT31;70142;50.894;6.052;2023-07-16T08:19:55;21.63;53.36
80743;SHT31;70142;50.894;6.052;2023-07-16T08:22:28;21.82;53.36
80743;SHT31;70142;50.894;6.052;2023-07-16T08:25:04;21.27;55.36
80743;SHT31;70142;50.894;6.052;2023-07-16T08:27:38;21.11;55.12
80743;SHT31;70142;50.894;6.052;2023-07-16T08:30:11;21.78;54.23
80743;SHT31;70142;50.894;6.052;2023-07-16T08:32:44;22.61;51.18
80743;SHT31;70142;50.894;6.052;2023-07-16T08:35:17;23.35;51.02
80743;SHT31;70142;50.894;6.052;2023-07-16T08:37:51;23.70;50.03
80743;SHT31;70142;50.894;6.052;2023-07-16T08:40:26;23.93;49.09
80743;SHT31;70142;50.894;6.052;2023-07-16T08:43:00;24.02;49.30
80743;SHT31;70142;50.894;6.052;2023-07-16T08:45:38;24.79;47.61
80743;SHT31;70142;50.894;6.052;2023-07-16T08:48:12;24.68;47.51
80743;SHT31;70142;50.894;6.052;2023-07-16T08:50:47;24.43;48.39
80743;SHT31;70142;50.894;6.052;2023-07-16T08:53:20;24.27;48.42
80743;SHT31;70142;50.894;6.052;2023-07-16T08:55:55;23.70;49.71
80743;SHT31;70142;50.894;6.052;2023-07-16T08:58:30;23.93;49.71
80743;SHT31;70142;50.894;6.052;2023-07-16T09:01:06;24.51;47.85
80743;SHT31;70142;50.894;6.052;2023-07-16T09:03:39;25.09;47.39
80743;SHT31;70142;50.894;6.052;2023-07-16T09:06:12;24.16;47.92
80743;SHT31;70142;50.894;6.052;2023-07-16T09:08:46;23.58;49.07
80743;SHT31;70142;50.894;6.052;2023-07-16T09:11:21;23.82;48.21
80743;SHT31;70142;50.894;6.052;2023-07-16T09:13:57;23.99;48.21
80743;SHT31;70142;50.894;6.052;2023-07-16T09:16:32;23.99;48.42
80743;SHT31;70142;50.894;6.052;2023-07-16T09:19:06;23.95;48.43
80743;SHT31;70142;50.894;6.052;2023-07-16T09:21:40;23.45;49.86
80743;SHT31;70142;50.894;6.052;2023-07-16T09:24:13;23.93;48.88
80743;SHT31;70142;50.894;6.052;2023-07-16T09:26:52;24.74;46.34
80743;SHT31;70142;50.894;6.052;2023-07-16T09:29:25;24.12;48.24
80743;SHT31;70142;50.894;6.052;2023-07-16T09:32:00;24.81;46.33
80743;SHT31;70142;50.894;6.052;2023-07-16T09:34:34;25.25;45.33
80743;SHT31;70142;50.894;6.052;2023-07-16T09:37:07;25.42;45.24
80743;SHT31;70142;50.894;6.052;2023-07-16T09:39:42;25.46;44.56
80743;SHT31;70142;50.894;6.052;2023-07-16T09:42:19;25.26;45.91
80743;SHT31;70142;50.894;6.052;2023-07-16T09:44:58;24.17;46.33
80743;SHT31;70142;50.894;6.052;2023-07-16T09:47:32;23.63;48.15
80743;SHT31;70142;50.894;6.052;2023-07-16T09:50:06;22.95;49.11
80743;SHT31;70142;50.894;6.052;2023-07-16T09:52:39;22.95;48.89
80743;SHT31;70142;50.894;6.052;2023-07-16T09:55:14;22.64;49.43
80743;SHT31;70142;50.894;6.052;2023-07-16T09:57:52;22.64;49.55
80743;SHT31;70142;50.894;6.052;2023-07-16T10:00:27;23.42;49.06
80743;SHT31;70142;50.894;6.052;2023-07-16T10:03:01;24.17;47.01
80743;SHT31;70142;50.894;6.052;2023-07-16T10:05:37;24.09;47.16
80743;SHT31;70142;50.894;6.052;2023-07-16T10:08:16;24.03;46.80
80743;SHT31;70142;50.894;6.052;2023-07-16T10:10:54;23.83;46.99
80743;SHT31;70142;50.894;6.052;2023-07-16T10:13:33;23.89;47.03
80743;SHT31;70142;50.894;6.052;2023-07-16T10:16:07;24.56;46.72
80743;SHT31;70142;50.894;6.052;2023-07-16T10:18:50;24.67;46.31
80743;SHT31;70142;50.894;6.052;2023-07-16T10:21:25;24.43;46.54
80743;SHT31;70142;50.894;6.052;2023-07-16T10:23:59;24.98;46.63
80743;SHT31;70142;50.894;6.052;2023-07-16T10:26:35;25.82;45.83
80743;SHT31;70142;50.894;6.052;2023-07-16T10:29:10;25.76;44.51
80743;SHT31;70142;50.894;6.052;2023-07-16T10:31:43;24.74;45.78
80743;SHT31;70142;50.894;6.052;2023-07-16T10:34:22;25.42;45.76
80743;SHT31;70142;50.894;6.052;2023-07-16T10:36:55;25.12;45.10
80743;SHT31;70142;50.894;6.052;2023-07-16T10:39:28;25.65;45.20
80743;SHT31;70142;50.894;6.052;2023-07-16T10:42:02;25.66;44.93
80743;SHT31;70142;50.894;6.052;2023-07-16T10:44:36;25.35;44.21
80743;SHT31;70142;50.894;6.052;2023-07-16T10:47:17;25.11;45.27
80743;SHT31;70142;50.894;6.052;2023-07-16T10:49:51;25.58;45.65
80743;SHT31;70142;50.894;6.052;2023-07-16T10:52:26;26.17;44.45
80743;SHT31;70142;50.894;6.052;2023-07-16T10:54:59;26.18;44.09
80743;SHT31;70142;50.894;6.052;2023-07-16T10:57:33;25.52;43.60
80743;SHT31;70142;50.894;6.052;2023-07-16T11:00:10;24.84;45.16
80743;SHT31;70142;50.894;6.052;2023-07-16T11:02:44;24.26;46.41
80743;SHT31;70142;50.894;6.052;2023-07-16T11:05:19;24.00;46.07
80743;SHT31;70142;50.894;6.052;2023-07-16T11:07:52;23.96;46.94
80743;SHT31;70142;50.894;6.052;2023-07-16T11:10:28;23.87;47.21
80743;SHT31;70142;50.894;6.052;2023-07-16T11:13:02;24.02;45.61
80743;SHT31;70142;50.894;6.052;2023-07-16T11:15:36;23.83;46.45
80743;SHT31;70142;50.894;6.052;2023-07-16T11:18:09;24.09;45.61
80743;SHT31;70142;50.894;6.052;2023-07-16T11:20:43;24.53;44.02
80743;SHT31;70142;50.894;6.052;2023-07-16T11:23:16;24.58;44.80
80743;SHT31;70142;50.894;6.052;2023-07-16T11:25:51;25.49;44.69
80743;SHT31;70142;50.894;6.052;2023-07-16T11:28:35;25.14;43.69
80743;SHT31;70142;50.894;6.052;2023-07-16T11:31:14;25.14;44.12
80743;SHT31;70142;50.894;6.052;2023-07-16T11:33:48;24.65;44.09
80743;SHT31;70142;50.894;6.052;2023-07-16T11:36:21;25.02;44.58
80743;SHT31;70142;50.894;6.052;2023-07-16T11:38:55;25.31;43.67
80743;SHT31;70142;50.894;6.052;2023-07-16T11:41:28;25.16;43.82
80743;SHT31;70142;50.894;6.052;2023-07-16T11:44:01;24.91;44.42
80743;SHT31;70142;50.894;6.052;2023-07-16T11:46:36;26.00;43.08
80743;SHT31;70142;50.894;6.052;2023-07-16T11:49:09;25.70;43.19
80743;SHT31;70142;50.894;6.052;2023-07-16T11:51:42;25.73;42.90
80743;SHT31;70142;50.894;6.052;2023-07-16T11:54:18;25.67;43.63
80743;SHT31;70142;50.894;6.052;2023-07-16T11:56:51;25.31;43.56
80743;SHT31;70142;50.894;6.052;2023-07-16T11:59:24;24.53;43.98
80743;SHT31;70142;50.894;6.052;2023-07-16T12:01:59;24.85;44.58
80743;SHT31;70142;50.894;6.052;2023-07-16T12:04:32;24.74;44.56
80743;SHT31;70142;50.894;6.052;2023-07-16T12:07:06;24.87;44.50
80743;SHT31;70142;50.894;6.052;2023-07-16T12:09:40;24.57;44.50
80743;SHT31;70142;50.894;6.052;2023-07-16T12:12:13;24.44;45.09
80743;SHT31;70142;50.894;6.052;2023-07-16T12:14:46;24.57;45.21
80743;SHT31;70142;50.894;6.052;2023-07-16T12:17:21;25.22;43.48
80743;SHT31;70142;50.894;6.052;2023-07-16T12:19:54;25.46;44.00
80743;SHT31;70142;50.894;6.052;2023-07-16T12:22:28;25.07;43.78
80743;SHT31;70142;50.894;6.052;2023-07-16T12:25:01;24.87;44.72
80743;SHT31;70142;50.894;6.052;2023-07-16T12:27:34;24.82;44.64
80743;SHT31;70142;50.894;6.052;2023-07-16T12:30:07;25.45;43.16
80743;SHT31;70142;50.894;6.052;2023-07-16T12:32:42;25.26;44.63
80743;SHT31;70142;50.894;6.052;2023-07-16T12:35:16;24.77;44.87
80743;SHT31;70142;50.894;6.052;2023-07-16T12:37:49;24.28;45.39
80743;SHT31;70142;50.894;6.052;2023-07-16T12:40:22;24.38;45.97
80743;SHT31;70142;50.894;6.052;2023-07-16T12:42:55;25.23;45.00
80743;SHT31;70142;50.894;6.052;2023-07-16T12:45:28;25.35;44.04
80743;SHT31;70142;50.894;6.052;2023-07-16T12:48:04;25.62;43.91
80743;SHT31;70142;50.894;6.052;2023-07-16T12:50:37;25.33;44.69
80743;SHT31;70142;50.894;6.052;2023-07-16T12:53:10;25.46;44.25
80743;SHT31;70142;50.894;6.052;2023-07-16T12:55:43;25.96;42.47
80743;SHT31;70142;50.894;6.052;2023-07-16T12:58:17;26.18;42.29
80743;SHT31;70142;50.894;6.052;2023-07-16T13:00:50;26.45;41.43
80743;SHT31;70142;50.894;6.052;2023-07-16T13:03:24;25.60;43.19
80743;SHT31;70142;50.894;6.052;2023-07-16T13:06:00;24.94;44.45
80743;SHT31;70142;50.894;6.052;2023-07-16T13:08:36;24.54;45.73
80743;SHT31;70142;50.894;6.052;2023-07-16T13:11:10;24.44;46.41
80743;SHT31;70142;50.894;6.052;2023-07-16T13:13:43;24.44;45.61
80743;SHT31;70142;50.894;6.052;2023-07-16T13:16:17;24.87;45.35
80743;SHT31;70142;50.894;6.052;2023-07-16T13:18:52;25.46;42.97
80743;SHT31;70142;50.894;6.052;2023-07-16T13:21:25;26.61;42.73
80743;SHT31;70142;50.894;6.052;2023-07-16T13:23:58;26.35;42.24
80743;SHT31;70142;50.894;6.052;2023-07-16T13:26:32;26.04;43.60
80743;SHT31;70142;50.894;6.052;2023-07-16T13:29:05;25.94;42.73
80743;SHT31;70142;50.894;6.052;2023-07-16T13:31:38;25.39;43.02
80743;SHT31;70142;50.894;6.052;2023-07-16T13:34:13;25.36;43.38
80743;SHT31;70142;50.894;6.052;2023-07-16T13:36:46;25.26;44.52
80743;SHT31;70142;50.894;6.052;2023-07-16T13:39:19;24.81;45.96
80743;SHT31;70142;50.894;6.052;2023-07-16T13:41:52;24.72;46.21
80743;SHT31;70142;50.894;6.052;2023-07-16T13:44:36;24.50;46.74
80743;SHT31;70142;50.894;6.052;2023-07-16T13:47:09;24.84;46.18
80743;SHT31;70142;50.894;6.052;2023-07-16T13:49:44;25.19;45.50
80743;SHT31;70142;50.894;6.052;2023-07-16T13:52:17;25.41;43.40
80743;SHT31;70142;50.894;6.052;2023-07-16T13:54:50;25.31;44.58
80743;SHT31;70142;50.894;6.052;2023-07-16T13:57:23;25.92;43.53
80743;SHT31;70142;50.894;6.052;2023-07-16T13:59:56;26.25;42.96
80743;SHT31;70142;50.894;6.052;2023-07-16T14:02:30;26.05;43.71
80743;SHT31;70142;50.894;6.052;2023-07-16T14:05:05;25.73;44.45
80743;SHT31;70142;50.894;6.052;2023-07-16T14:07:38;25.65;45.27
80743;SHT31;70142;50.894;6.052;2023-07-16T14:10:11;25.26;45.48
80743;SHT31;70142;50.894;6.052;2023-07-16T14:12:44;25.92;44.14
80743;SHT31;70142;50.894;6.052;2023-07-16T14:15:18;26.13;44.44
80743;SHT31;70142;50.894;6.052;2023-07-16T14:17:51;26.08;44.46
80743;SHT31;70142;50.894;6.052;2023-07-16T14:20:26;26.17;44.01
80743;SHT31;70142;50.894;6.052;2023-07-16T14:22:59;26.44;43.77
80743;SHT31;70142;50.894;6.052;2023-07-16T14:25:32;26.59;42.72
80743;SHT31;70142;50.894;6.052;2023-07-16T14:28:08;26.28;42.79
80743;SHT31;70142;50.894;6.052;2023-07-16T14:30:41;25.67;43.89
80743;SHT31;70142;50.894;6.052;2023-07-16T14:33:14;25.70;43.11
80743;SHT31;70142;50.894;6.052;2023-07-16T14:35:49;26.03;43.22
80743;SHT31;70142;50.894;6.052;2023-07-16T14:38:22;25.94;43.32
80743;SHT31;70142;50.894;6.052;2023-07-16T14:40:55;26.01;43.68
80743;SHT31;70142;50.894;6.052;2023-07-16T14:43:28;26.24;43.74
80743;SHT31;70142;50.894;6.052;2023-07-16T14:46:02;26.49;42.88
80743;SHT31;70142;50.894;6.052;2023-07-16T14:48:35;26.79;42.78
80743;SHT31;70142;50.894;6.052;2023-07-16T14:51:10;26.95;41.68
80743;SHT31;70142;50.894;6.052;2023-07-16T14:53:43;26.88;41.51
80743;SHT31;70142;50.894;6.052;2023-07-16T14:56:17;26.91;41.50
80743;SHT31;70142;50.894;6.052;2023-07-16T14:58:50;26.79;41.34
80743;SHT31;70142;50.894;6.052;2023-07-16T15:01:23;26.40;41.34
80743;SHT31;70142;50.894;6.052;2023-07-16T15:03:56;26.13;42.82
80743;SHT31;70142;50.894;6.052;2023-07-16T15:06:31;26.24;41.60
80743;SHT31;70142;50.894;6.052;2023-07-16T15:09:04;26.35;41.90
80743;SHT31;70142;50.894;6.052;2023-07-16T15:11:37;26.20;41.65
80743;SHT31;70142;50.894;6.052;2023-07-16T15:14:11;26.31;41.33
80743;SHT31;70142;50.894;6.052;2023-07-16T15:16:44;25.77;41.75
80743;SHT31;70142;50.894;6.052;2023-07-16T15:19:17;25.39;42.59
80743;SHT31;70142;50.894;6.052;2023-07-16T15:21:53;25.29;42.51
80743;SHT31;70142;50.894;6.052;2023-07-16T15:24:26;25.58;42.95
80743;SHT31;70142;50.894;6.052;2023-07-16T15:26:59;25.70;42.01
80743;SHT31;70142;50.894;6.052;2023-07-16T15:29:32;25.67;41.86
80743;SHT31;70142;50.894;6.052;2023-07-16T15:32:06;25.72;42.09
80743;SHT31;70142;50.894;6.052;2023-07-16T15:34:40;25.92;42.23
80743;SHT31;70142;50.894;6.052;2023-07-16T15:37:18;26.49;41.46
80743;SHT31;70142;50.894;6.052;2023-07-16T15:39:51;26.44;40.70
80743;SHT31;70142;50.894;6.052;2023-07-16T15:42:24;26.89;40.72
80743;SHT31;70142;50.894;6.052;2023-07-16T15:44:58;27.29;40.26
80743;SHT31;70142;50.894;6.052;2023-07-16T15:47:31;27.33;39.60
80743;SHT31;70142;50.894;6.052;2023-07-16T15:50:05;27.50;39.25
80743;SHT31;70142;50.894;6.052;2023-07-16T15:52:40;27.54;39.53
80743;SHT31;70142;50.894;6.052;2023-07-16T15:55:13;26.86;39.08
80743;SHT31;70142;50.894;6.052;2023-07-16T15:57:47;26.85;39.66
80743;SHT31;70142;50.894;6.052;2023-07-16T16:00:20;27.16;39.90
80743;SHT31;70142;50.894;6.052;2023-07-16T16:02:54;27.23;39.94
80743;SHT31;70142;50.894;6.052;2023-07-16T16:05:28;26.75;41.32
80743;SHT31;70142;50.894;6.052;2023-07-16T16:08:14;26.92;40.88
80743;SHT31;70142;50.894;6.052;2023-07-16T16:10:49;27.54;39.92
80743;SHT31;70142;50.894;6.052;2023-07-16T16:13:24;27.35;39.40